Time;durP1;ratioP1;P1;durP2;ratioP2;P2;SDS_P1;SDS_P2;PMS_P1;PMS_P2;Temp;Humidity;BMP_temperature;BMP_pressure;BME280_temperature;BME280_humidity;BME280_pressure;Samples;Min_cycle;Max_cycle;Signal;HPM_P1;HPM_P2
2022/05/05 00:02:21;;;;;;;7.88;5.18;;;15.00;69.50;;;;;;4977057;28;20121;-84
2022/05/05 00:04:47;;;;;;;11.25;5.95;;;14.90;69.60;;;;;;4960627;28;20125;-88
2022/05/05 00:07:12;;;;;;;12.02;6.00;;;14.90;69.90;;;;;;4976801;28;20029;-83
2022/05/05 00:09:38;;;;;;;15.48;5.40;;;14.90;70.20;;;;;;4960809;28;20034;-83
2022/05/05 00:14:49;;;;;;;9.15;5.00;;;14.90;70.50;;;;;;4993832;28;20037;-84
2022/05/05 00:17:14;;;;;;;11.57;5.45;;;14.80;70.70;;;;;;4976492;28;20394;-83
2022/05/05 00:19:42;;;;;;;10.27;4.90;;;14.80;70.90;;;;;;4960630;28;20065;-84
2022/05/05 00:22:09;;;;;;;11.07;4.93;;;14.80;71.10;;;;;;4976325;28;20031;-84
2022/05/05 00:24:37;;;;;;;14.10;5.32;;;14.80;71.20;;;;;;4976797;28;20386;-84
2022/05/05 00:27:03;;;;;;;13.75;5.30;;;14.80;71.40;;;;;;4976382;28;20026;-84
2022/05/05 00:29:28;;;;;;;11.20;5.80;;;14.80;71.60;;;;;;4960564;28;20031;-84
2022/05/05 00:31:54;;;;;;;12.38;5.43;;;14.80;71.70;;;;;;4994146;28;20731;-84
2022/05/05 00:34:20;;;;;;;10.40;6.30;;;14.80;71.80;;;;;;4960895;28;20457;-84
2022/05/05 00:36:45;;;;;;;11.07;5.55;;;14.70;72.00;;;;;;4976418;28;20441;-83
2022/05/05 00:39:11;;;;;;;8.55;5.32;;;14.80;72.80;;;;;;4976075;28;20113;-83
2022/05/05 00:41:39;;;;;;;11.20;5.70;;;14.70;72.40;;;;;;4976835;28;20387;-84
2022/05/05 00:44:06;;;;;;;10.68;5.68;;;14.70;72.40;;;;;;4976223;28;20073;-84
2022/05/05 00:46:33;;;;;;;12.60;5.30;;;14.70;72.70;;;;;;4993908;28;20035;-83
2022/05/05 00:48:59;;;;;;;10.43;5.28;;;14.70;72.80;;;;;;4960097;28;20125;-84
2022/05/05 00:51:25;;;;;;;11.88;5.72;;;14.70;72.90;;;;;;4993921;28;20088;-83
2022/05/05 00:53:52;;;;;;;11.98;5.25;;;14.60;73.00;;;;;;4976627;28;20026;-83
2022/05/05 00:56:18;;;;;;;10.45;5.57;;;14.60;73.60;;;;;;4995777;28;20018;-84
2022/05/05 00:58:45;;;;;;;13.02;6.40;;;14.60;73.10;;;;;;4980072;28;20053;-83
2022/05/05 01:01:14;;;;;;;10.13;5.53;;;14.60;73.10;;;;;;4963940;28;20035;-83
2022/05/05 01:03:40;;;;;;;11.05;5.50;;;14.60;73.20;;;;;;4997644;28;20036;-84
2022/05/05 01:06:06;;;;;;;11.07;5.50;;;14.50;73.20;;;;;;4980047;28;20042;-83
2022/05/05 01:08:36;;;;;;;10.75;5.20;;;14.50;73.30;;;;;;4963454;28;20031;-84
2022/05/05 01:11:03;;;;;;;12.18;5.38;;;14.50;73.40;;;;;;4979800;28;20026;-84
2022/05/05 01:13:29;;;;;;;11.18;5.53;;;14.50;73.60;;;;;;4979802;28;20034;-84
2022/05/05 01:15:56;;;;;;;10.18;5.43;;;14.50;73.70;;;;;;4996975;28;20069;-84
2022/05/05 01:18:22;;;;;;;11.20;5.70;;;14.40;73.70;;;;;;4979637;28;20487;-84
2022/05/05 01:20:53;;;;;;;13.30;6.43;;;14.40;73.70;;;;;;4979685;28;20071;-84
2022/05/05 01:23:19;;;;;;;10.75;5.22;;;14.40;73.80;;;;;;4963732;28;20022;-83
2022/05/05 01:28:32;;;;;;;10.13;5.68;;;14.30;74.20;;;;;;4982232;28;20462;-84
2022/05/05 01:30:59;;;;;;;10.98;5.30;;;14.30;74.30;;;;;;4979283;28;20025;-84
2022/05/05 01:33:27;;;;;;;12.02;5.85;;;14.30;74.40;;;;;;4979396;28;20037;-84
2022/05/05 01:35:56;;;;;;;9.68;5.70;;;14.20;74.30;;;;;;4979459;28;20019;-83
2022/05/05 01:38:23;;;;;;;12.57;5.75;;;14.20;74.40;;;;;;4979374;28;20112;-83
2022/05/05 01:40:50;;;;;;;12.18;5.68;;;14.10;74.50;;;;;;4997254;28;20113;-84
2022/05/05 01:43:17;;;;;;;9.75;5.18;;;14.10;74.60;;;;;;4996484;28;20158;-84
2022/05/05 01:45:44;;;;;;;9.60;5.25;;;14.10;74.70;;;;;;4996516;28;20053;-83
2022/05/05 01:48:10;;;;;;;8.85;5.10;;;14.00;74.60;;;;;;4979263;28;20023;-84
2022/05/05 01:50:36;;;;;;;11.68;5.00;;;14.00;74.60;;;;;;4963345;28;20050;-83
2022/05/05 01:53:03;;;;;;;8.55;5.45;;;14.00;74.80;;;;;;4978963;28;20521;-83
2022/05/05 01:55:30;;;;;;;12.75;6.00;;;13.90;74.80;;;;;;4979236;28;20057;-83
2022/05/05 01:57:57;;;;;;;11.38;5.47;;;13.90;74.90;;;;;;4963288;28;20034;-83
2022/05/05 02:00:23;;;;;;;8.27;5.05;;;13.90;75.10;;;;;;4963076;28;20027;-83
2022/05/05 02:02:49;;;;;;;8.52;5.78;;;13.90;75.30;;;;;;4963150;28;20443;-83
2022/05/05 02:05:16;;;;;;;10.00;5.60;;;13.80;75.60;;;;;;4996167;28;20026;-83
2022/05/05 02:07:43;;;;;;;10.25;5.43;;;13.80;75.70;;;;;;4961774;28;20081;-83
2022/05/05 02:10:10;;;;;;;9.18;4.93;;;13.80;75.80;;;;;;4996055;28;20038;-83
2022/05/05 02:12:36;;;;;;;12.90;5.88;;;13.70;75.80;;;;;;4979097;28;20053;-83
2022/05/05 02:15:06;;;;;;;11.95;6.05;;;13.70;75.90;;;;;;4978639;28;20030;-84
2022/05/05 02:17:32;;;;;;;12.23;6.15;;;13.70;76.00;;;;;;4978595;28;20027;-83
2022/05/05 02:20:00;;;;;;;11.60;5.82;;;13.60;76.10;;;;;;4978612;28;20046;-83
2022/05/05 02:22:26;;;;;;;12.13;5.88;;;13.60;76.30;;;;;;4978626;28;20050;-83
2022/05/05 02:24:52;;;;;;;13.00;5.68;;;13.60;76.40;;;;;;4979122;28;20037;-83
2022/05/05 02:27:18;;;;;;;17.02;6.68;;;13.50;76.40;;;;;;4978816;28;20023;-84
2022/05/05 02:29:45;;;;;;;9.95;5.70;;;13.50;76.50;;;;;;4978785;28;20030;-83
2022/05/05 02:32:11;;;;;;;10.50;5.68;;;13.40;76.50;;;;;;4946691;28;20471;-83
2022/05/05 02:34:36;;;;;;;11.32;5.97;;;13.40;76.70;;;;;;4962747;28;20116;-83
2022/05/05 02:39:47;;;;;;;11.27;6.25;;;13.40;77.20;;;;;;4995746;28;20038;-83
2022/05/05 02:42:12;;;;;;;11.07;6.10;;;13.40;77.40;;;;;;4962199;28;20034;-84
2022/05/05 02:44:38;;;;;;;13.52;6.68;;;13.30;77.50;;;;;;4961893;28;20487;-83
2022/05/05 02:47:04;;;;;;;10.75;5.88;;;13.30;77.60;;;;;;4946233;28;20045;-84
2022/05/05 02:49:29;;;;;;;12.82;6.25;;;13.20;77.70;;;;;;4978968;28;20105;-83
2022/05/05 02:51:55;;;;;;;11.85;6.65;;;13.10;77.80;;;;;;4963778;28;20497;-83
2022/05/05 02:57:06;;;;;;;12.40;6.50;;;13.10;78.10;;;;;;4983292;28;20077;-84
2022/05/05 02:59:31;;;;;;;15.18;6.90;;;13.10;78.30;;;;;;4946933;28;20549;-83
2022/05/05 03:01:58;;;;;;;12.57;7.13;;;13.00;78.50;;;;;;5000013;28;20061;-83
2022/05/05 03:04:24;;;;;;;11.23;6.80;;;13.00;78.70;;;;;;4980366;28;20141;-83
2022/05/05 03:06:49;;;;;;;11.15;6.40;;;13.00;78.90;;;;;;4978310;28;20457;-83
2022/05/05 03:09:15;;;;;;;11.02;5.85;;;13.00;79.00;;;;;;4961640;28;20166;-83
2022/05/05 03:11:41;;;;;;;15.30;6.90;;;12.90;79.20;;;;;;4945872;28;20105;-83
2022/05/05 03:14:06;;;;;;;13.30;6.65;;;12.90;79.50;;;;;;4961451;28;20066;-84
2022/05/05 03:16:32;;;;;;;12.25;6.72;;;12.90;79.80;;;;;;4945737;28;20050;-83
2022/05/05 03:18:57;;;;;;;12.88;6.80;;;12.80;79.90;;;;;;4945634;28;20113;-83
2022/05/05 03:21:23;;;;;;;12.27;6.43;;;12.80;80.00;;;;;;4945297;28;20089;-82
2022/05/05 03:23:49;;;;;;;13.05;6.50;;;12.80;80.20;;;;;;4961461;28;20022;-83
2022/05/05 03:26:14;;;;;;;10.70;6.35;;;12.80;80.30;;;;;;4961209;28;20030;-83
2022/05/05 03:28:40;;;;;;;10.98;6.50;;;12.70;80.60;;;;;;4977177;28;20451;-83
2022/05/05 03:31:06;;;;;;;11.15;6.20;;;12.70;80.70;;;;;;4977558;28;20030;-83
2022/05/05 03:33:32;;;;;;;10.70;5.95;;;12.70;80.80;;;;;;4961505;28;20022;-83
2022/05/05 03:35:58;;;;;;;9.98;5.63;;;12.70;80.90;;;;;;4994760;28;20026;-83
2022/05/05 03:38:24;;;;;;;12.10;6.60;;;12.70;81.00;;;;;;4976785;28;20363;-83
2022/05/05 03:40:51;;;;;;;10.68;6.07;;;12.60;81.10;;;;;;4977521;28;20034;-83
2022/05/05 03:43:17;;;;;;;12.13;6.30;;;12.60;81.20;;;;;;4960580;28;20082;-83
2022/05/05 03:45:43;;;;;;;12.27;6.00;;;12.60;81.20;;;;;;4961075;28;20033;-83
2022/05/05 03:48:09;;;;;;;9.15;6.20;;;12.60;81.70;;;;;;4960790;28;20027;-86
2022/05/05 03:50:35;;;;;;;10.88;6.45;;;12.50;81.50;;;;;;4961027;28;20035;-83
2022/05/05 03:53:00;;;;;;;9.95;5.72;;;12.60;81.70;;;;;;4976984;28;20427;-83
2022/05/05 03:55:28;;;;;;;12.60;6.18;;;12.50;81.80;;;;;;4944768;28;20030;-83
2022/05/05 03:57:53;;;;;;;11.77;6.32;;;12.50;81.90;;;;;;4961195;28;20113;-83
2022/05/05 04:00:20;;;;;;;12.65;6.38;;;12.50;82.00;;;;;;4960664;28;20042;-83
2022/05/05 04:03:30;;;;;;;14.43;6.88;;;12.50;82.20;;;;;;4961080;28;20061;-83
2022/05/05 04:05:31;;;;;;;12.38;6.38;;;12.50;82.40;;;;;;4979199;28;20058;-83
2022/05/05 04:07:57;;;;;;;12.15;6.68;;;12.40;82.50;;;;;;4960542;28;20069;-83
2022/05/05 04:10:23;;;;;;;15.65;6.47;;;12.40;82.80;;;;;;4976747;28;20030;-83
2022/05/05 04:12:48;;;;;;;12.88;6.15;;;12.40;83.00;;;;;;4960821;28;20031;-83
2022/05/05 04:15:14;;;;;;;12.68;6.45;;;12.40;83.30;;;;;;4944810;28;20122;-83
2022/05/05 04:17:39;;;;;;;11.60;5.82;;;12.40;83.50;;;;;;4976714;28;20054;-83
2022/05/05 04:20:05;;;;;;;11.43;6.53;;;12.40;83.80;;;;;;4976688;28;20467;-83
2022/05/05 04:22:31;;;;;;;15.85;6.30;;;12.40;84.10;;;;;;4976668;28;20034;-83
2022/05/05 04:24:57;;;;;;;11.30;6.25;;;12.40;84.40;;;;;;4976467;28;20451;-83
2022/05/05 04:27:22;;;;;;;10.45;5.82;;;12.30;84.60;;;;;;4944478;28;20026;-83
2022/05/05 04:29:48;;;;;;;13.77;6.57;;;12.30;84.90;;;;;;4944925;28;20367;-83
2022/05/05 04:32:14;;;;;;;12.93;6.30;;;12.30;85.20;;;;;;4963953;28;20058;-84
2022/05/05 04:34:40;;;;;;;13.73;5.90;;;12.30;85.60;;;;;;4948239;28;20534;-83
2022/05/05 04:37:06;;;;;;;9.95;6.07;;;12.30;86.00;;;;;;4980610;28;20031;-83
2022/05/05 04:39:31;;;;;;;11.90;6.20;;;12.40;86.60;;;;;;4980303;28;20030;-83
2022/05/05 04:41:57;;;;;;;9.98;6.32;;;12.40;86.90;;;;;;4964415;28;20050;-82
2022/05/05 04:44:23;;;;;;;13.20;6.05;;;12.40;87.30;;;;;;4980330;28;20065;-83
2022/05/05 04:46:49;;;;;;;14.27;6.63;;;12.40;87.60;;;;;;4980514;28;20023;-83
2022/05/05 04:49:15;;;;;;;10.60;6.30;;;12.40;87.80;;;;;;4980269;28;20133;-84
2022/05/05 04:51:40;;;;;;;11.77;6.18;;;12.40;88.10;;;;;;4980586;28;20112;-83
2022/05/05 04:54:06;;;;;;;12.50;6.40;;;12.30;88.20;;;;;;4964414;28;20481;-83
2022/05/05 04:56:31;;;;;;;11.70;7.13;;;12.40;88.50;;;;;;4963982;28;20064;-83
2022/05/05 04:58:57;;;;;;;11.50;6.53;;;12.40;88.70;;;;;;4968657;28;20045;-83
2022/05/05 05:01:23;;;;;;;11.15;6.70;;;12.40;89.00;;;;;;4948251;28;20030;-84
2022/05/05 05:03:48;;;;;;;9.38;6.93;;;12.40;89.40;;;;;;4980386;28;20450;-83
2022/05/05 05:06:14;;;;;;;12.57;7.00;;;12.40;89.90;;;;;;4963121;28;20035;-85
2022/05/05 05:08:40;;;;;;;11.68;6.85;;;12.40;90.10;;;;;;4978412;28;20085;-84
2022/05/05 05:11:06;;;;;;;10.85;6.75;;;12.40;90.20;;;;;;4996262;28;20470;-83
2022/05/05 05:13:32;;;;;;;10.05;6.80;;;12.40;90.30;;;;;;4997504;28;20023;-83
2022/05/05 05:15:57;;;;;;;10.68;7.35;;;12.30;90.50;;;;;;4979939;28;20026;-83
2022/05/05 05:18:23;;;;;;;12.48;7.03;;;12.30;90.50;;;;;;4947237;28;20030;-83
2022/05/05 05:20:49;;;;;;;12.07;6.43;;;12.30;90.50;;;;;;4947451;28;20100;-83
2022/05/05 05:23:15;;;;;;;16.27;7.45;;;12.30;90.70;;;;;;4978169;28;20037;-83
2022/05/05 05:25:40;;;;;;;11.02;6.30;;;12.20;90.90;;;;;;4997373;28;20027;-83
2022/05/05 05:28:06;;;;;;;14.32;7.65;;;12.20;91.10;;;;;;4954315;28;20034;-83
2022/05/05 05:30:33;;;;;;;15.27;7.38;;;12.20;91.20;;;;;;4963701;28;20455;-83
2022/05/05 05:32:58;;;;;;;13.43;7.22;;;12.20;91.40;;;;;;4963631;28;20506;-83
2022/05/05 05:35:24;;;;;;;12.00;6.90;;;12.20;91.60;;;;;;4963579;28;20034;-83
2022/05/05 05:37:51;;;;;;;12.10;7.00;;;12.10;91.70;;;;;;4979480;28;20026;-83
2022/05/05 05:40:17;;;;;;;13.25;7.32;;;12.10;91.80;;;;;;4961164;28;20463;-84
2022/05/05 05:42:43;;;;;;;16.17;7.07;;;12.10;91.80;;;;;;4977324;28;20041;-85
2022/05/05 05:45:09;;;;;;;16.17;7.50;;;12.10;92.00;;;;;;4947170;28;20070;-84
2022/05/05 05:47:34;;;;;;;15.20;7.22;;;12.00;92.20;;;;;;4996768;28;20046;-84
2022/05/05 05:50:00;;;;;;;13.80;7.75;;;12.00;92.40;;;;;;4963342;28;20053;-83
2022/05/05 05:52:26;;;;;;;11.30;7.28;;;12.00;92.60;;;;;;4963777;28;20459;-84
2022/05/05 05:54:51;;;;;;;13.82;8.50;;;11.90;92.80;;;;;;4979545;28;20027;-84
2022/05/05 05:57:17;;;;;;;12.23;7.10;;;11.90;93.00;;;;;;4963996;28;20105;-84
2022/05/05 05:59:42;;;;;;;18.67;8.57;;;11.90;93.10;;;;;;4947385;28;20041;-86
2022/05/05 06:04:52;;;;;;;14.48;7.82;;;11.90;93.40;;;;;;4983130;28;20493;-84
2022/05/05 06:07:18;;;;;;;13.68;8.45;;;11.90;93.80;;;;;;4964326;28;20110;-84
2022/05/05 06:09:43;;;;;;;19.13;8.02;;;11.90;93.70;;;;;;4963052;28;20037;-84
2022/05/05 06:12:09;;;;;;;15.55;8.30;;;11.90;93.80;;;;;;4980264;28;20031;-84
2022/05/05 06:14:35;;;;;;;15.55;7.88;;;11.90;93.90;;;;;;4963733;28;20066;-84
2022/05/05 06:17:01;;;;;;;13.70;8.60;;;12.00;94.00;;;;;;4978939;28;20493;-83
2022/05/05 06:19:26;;;;;;;14.95;8.98;;;12.00;94.20;;;;;;4962308;28;20125;-85
2022/05/05 06:21:52;;;;;;;12.70;8.02;;;12.00;94.40;;;;;;4994544;28;20030;-84
2022/05/05 06:24:17;;;;;;;14.95;8.38;;;12.10;94.60;;;;;;4964418;28;20459;-85
2022/05/05 06:26:43;;;;;;;20.20;8.70;;;12.10;94.70;;;;;;4972098;28;20036;-84
2022/05/05 06:29:09;;;;;;;19.45;9.57;;;12.20;94.80;;;;;;4988405;28;20035;-84
2022/05/05 06:31:34;;;;;;;16.08;8.68;;;12.20;94.80;;;;;;4981761;28;20088;-84
2022/05/05 06:34:00;;;;;;;15.95;9.48;;;12.30;94.90;;;;;;4950872;28;20022;-85
2022/05/05 06:36:26;;;;;;;15.80;8.52;;;12.30;95.00;;;;;;5003222;28;20498;-84
2022/05/05 06:38:52;;;;;;;15.32;9.15;;;12.40;95.00;;;;;;4963386;28;20038;-83
2022/05/05 06:41:18;;;;;;;15.35;9.02;;;12.40;94.90;;;;;;4978668;28;20034;-84
2022/05/05 06:43:44;;;;;;;12.88;8.35;;;12.40;94.70;;;;;;4974555;28;20065;-84
2022/05/05 06:46:09;;;;;;;12.40;8.23;;;12.50;94.80;;;;;;4972861;28;20026;-84
2022/05/05 06:48:35;;;;;;;17.35;9.45;;;12.50;94.90;;;;;;4958747;28;20059;-84
2022/05/05 06:51:01;;;;;;;15.60;8.90;;;12.60;95.00;;;;;;4975938;28;20026;-85
2022/05/05 06:53:27;;;;;;;12.70;8.05;;;12.60;95.10;;;;;;4975008;28;20030;-88
2022/05/05 06:55:55;;;;;;;15.13;8.80;;;12.70;95.20;;;;;;4958369;28;20026;-84
2022/05/05 06:58:22;;;;;;;15.38;9.05;;;12.70;95.20;;;;;;4960162;28;20117;-84
2022/05/05 07:03:32;;;;;;;13.57;9.13;;;12.80;95.20;;;;;;4975547;28;20046;-85
2022/05/05 07:05:58;;;;;;;14.90;8.95;;;12.90;95.20;;;;;;4960293;28;20030;-83
2022/05/05 07:08:24;;;;;;;17.63;10.38;;;13.00;95.20;;;;;;4960065;28;20035;-85
2022/05/05 07:10:52;;;;;;;17.00;8.82;;;13.00;95.20;;;;;;4975075;28;20085;-84
2022/05/05 07:13:25;;;;;;;18.45;9.90;;;13.10;95.20;;;;;;4975211;28;20051;-84
2022/05/05 07:15:51;;;;;;;15.48;9.00;;;13.20;95.30;;;;;;4954308;29;20149;-84
2022/05/05 07:18:17;;;;;;;15.35;9.75;;;13.30;95.30;;;;;;4940549;29;20062;-85
2022/05/05 07:20:44;;;;;;;12.93;8.52;;;13.30;95.30;;;;;;4956296;29;20030;-84
2022/05/05 07:23:12;;;;;;;17.27;9.27;;;13.40;95.40;;;;;;4939957;29;20027;-84
2022/05/05 07:25:42;;;;;;;13.25;8.10;;;13.40;95.40;;;;;;4955283;29;20376;-84
2022/05/05 07:28:08;;;;;;;15.95;8.85;;;13.60;95.30;;;;;;4955500;29;20053;-84
2022/05/05 07:30:34;;;;;;;22.23;9.60;;;13.70;95.20;;;;;;4940411;29;20043;-84
2022/05/05 07:33:01;;;;;;;18.70;10.07;;;13.70;95.10;;;;;;4955223;28;20125;-84
2022/05/05 07:35:27;;;;;;;14.55;9.10;;;13.80;94.80;;;;;;4939874;29;20464;-84
2022/05/05 07:37:52;;;;;;;15.18;9.55;;;13.90;94.60;;;;;;4955485;29;20042;-84
2022/05/05 07:40:18;;;;;;;14.85;9.13;;;14.00;94.60;;;;;;4956270;29;20038;-84
2022/05/05 07:42:43;;;;;;;18.83;10.05;;;14.10;94.80;;;;;;4954711;29;20158;-84
2022/05/05 07:45:10;;;;;;;12.50;8.82;;;14.20;95.10;;;;;;4954468;29;20047;-84
2022/05/05 07:47:36;;;;;;;16.75;9.65;;;14.30;95.00;;;;;;4938821;29;20101;-84
2022/05/05 07:50:02;;;;;;;16.27;9.80;;;14.40;94.90;;;;;;4954527;29;20527;-84
2022/05/05 07:52:28;;;;;;;19.88;9.57;;;14.50;94.70;;;;;;4954423;29;20387;-84
2022/05/05 07:54:53;;;;;;;18.08;9.90;;;14.60;94.60;;;;;;4954543;29;20046;-84
2022/05/05 07:57:20;;;;;;;18.95;10.80;;;14.70;94.30;;;;;;4954424;29;20027;-84
2022/05/05 07:59:46;;;;;;;15.90;9.00;;;14.70;92.90;;;;;;4954271;29;20043;-84
2022/05/05 08:02:15;;;;;;;16.25;9.77;;;14.80;92.50;;;;;;4944186;28;20049;-84
2022/05/05 08:04:45;;;;;;;18.75;9.15;;;14.90;92.20;;;;;;4973175;28;20106;-84
2022/05/05 08:07:11;;;;;;;17.50;8.70;;;15.00;92.10;;;;;;4957316;28;20042;-83
2022/05/05 08:09:38;;;;;;;19.48;9.23;;;15.10;91.70;;;;;;4965610;28;20031;-85
2022/05/05 08:12:05;;;;;;;15.43;7.63;;;15.20;91.10;;;;;;4956956;28;20113;-84
2022/05/05 08:14:31;;;;;;;16.80;8.07;;;15.30;90.80;;;;;;4973613;28;20119;-83
2022/05/05 08:16:57;;;;;;;13.10;7.78;;;15.40;90.50;;;;;;4974398;28;20090;-83
2022/05/05 08:19:23;;;;;;;14.02;7.68;;;15.50;90.10;;;;;;4973369;28;20065;-83
2022/05/05 08:21:49;;;;;;;15.95;7.10;;;15.60;90.00;;;;;;4957358;28;20414;-83
2022/05/05 08:29:44;;;;;;;11.98;6.38;;;15.80;87.10;;;;;;4974115;28;20049;-83
2022/05/05 08:32:09;;;;;;;11.40;6.10;;;15.90;86.40;;;;;;4974436;28;20113;-83
2022/05/05 08:34:35;;;;;;;12.23;6.63;;;16.00;85.70;;;;;;4973154;28;20105;-84
2022/05/05 08:37:01;;;;;;;14.65;7.50;;;16.10;85.70;;;;;;4972666;28;20390;-84
2022/05/05 08:39:27;;;;;;;12.70;7.60;;;16.10;84.50;;;;;;4975841;28;20027;-84
2022/05/05 08:41:56;;;;;;;15.25;8.45;;;16.20;84.50;;;;;;4974113;28;20395;-85
2022/05/05 08:44:22;;;;;;;13.70;7.55;;;16.30;84.20;;;;;;4957899;28;20058;-85
2022/05/05 08:46:49;;;;;;;14.00;7.57;;;16.40;84.30;;;;;;4957789;28;20118;-84
2022/05/05 08:49:20;;;;;;;13.25;7.80;;;16.50;84.20;;;;;;4956354;28;20074;-83
2022/05/05 08:51:49;;;;;;;15.35;8.32;;;16.60;83.50;;;;;;4967424;28;20027;-83
2022/05/05 08:54:18;;;;;;;14.80;8.73;;;16.60;82.90;;;;;;4973060;28;20018;-85
2022/05/05 08:56:47;;;;;;;14.27;9.02;;;16.70;82.40;;;;;;4950430;29;20468;-84
2022/05/05 08:59:13;;;;;;;15.10;8.82;;;16.80;82.20;;;;;;4936632;29;20186;-84
2022/05/05 09:01:40;;;;;;;18.35;8.80;;;16.90;81.50;;;;;;4953706;29;20031;-84
2022/05/05 09:04:09;;;;;;;16.27;9.77;;;16.90;81.40;;;;;;4953617;29;20039;-84
2022/05/05 09:06:42;;;;;;;17.05;9.25;;;17.00;81.50;;;;;;4954967;28;20040;-84
2022/05/05 09:09:30;;;;;;;19.98;9.07;;;17.10;81.50;;;;;;4953298;29;20039;-84
2022/05/05 09:12:20;;;;;;;17.40;9.13;;;17.10;81.50;;;;;;4953614;29;20027;-84
2022/05/05 09:14:47;;;;;;;15.85;9.25;;;17.20;81.60;;;;;;4954841;28;20032;-84
2022/05/05 09:17:24;;;;;;;12.50;8.68;;;17.30;81.50;;;;;;4955460;28;20055;-84
2022/05/05 09:19:56;;;;;;;15.10;9.15;;;17.30;81.60;;;;;;4956617;29;20187;-84
2022/05/05 09:22:27;;;;;;;13.45;9.30;;;17.40;81.70;;;;;;4957882;28;20034;-84
2022/05/05 09:24:56;;;;;;;15.45;9.68;;;17.40;81.50;;;;;;4957194;29;20031;-83
2022/05/05 09:27:29;;;;;;;16.23;10.85;;;17.50;81.10;;;;;;4971859;28;20130;-84
2022/05/05 09:29:58;;;;;;;14.40;9.95;;;17.60;80.40;;;;;;4975510;28;20502;-85
2022/05/05 09:32:28;;;;;;;16.80;10.20;;;17.60;79.40;;;;;;4975418;28;20169;-85
2022/05/05 09:35:03;;;;;;;15.73;9.68;;;17.70;79.60;;;;;;4977806;28;20035;-84
2022/05/05 09:37:30;;;;;;;19.00;10.18;;;17.80;79.50;;;;;;4976563;28;20019;-84
2022/05/05 09:39:57;;;;;;;22.55;10.90;;;17.80;79.20;;;;;;4960097;28;20039;-84
2022/05/05 09:42:44;;;;;;;16.45;10.15;;;17.80;78.20;;;;;;4975647;28;20459;-84
2022/05/05 09:45:12;;;;;;;15.65;9.80;;;17.90;78.10;;;;;;4973634;28;20054;-84
2022/05/05 09:47:38;;;;;;;17.13;10.23;;;18.00;78.10;;;;;;4944044;28;20082;-84
2022/05/05 09:50:05;;;;;;;21.27;11.18;;;18.00;78.20;;;;;;4975423;28;20025;-86
2022/05/05 09:58:08;;;;;;;15.48;10.60;;;18.20;77.40;;;;;;4977602;28;20041;-84
2022/05/05 10:00:45;;;;;;;15.60;10.68;;;18.20;77.60;;;;;;4986439;28;20046;-85
2022/05/05 10:06:14;;;;;;;17.55;11.07;;;18.30;77.70;;;;;;4979902;28;20046;-83
2022/05/05 10:08:45;;;;;;;23.25;12.13;;;18.40;77.60;;;;;;4976440;28;20049;-83
2022/05/05 10:11:15;;;;;;;19.42;11.32;;;18.40;77.10;;;;;;4979988;28;20161;-83
2022/05/05 10:13:42;;;;;;;21.37;11.30;;;18.50;76.80;;;;;;4961163;28;20117;-83
2022/05/05 10:16:09;;;;;;;15.65;11.15;;;18.50;75.90;;;;;;4976761;28;20030;-83
2022/05/05 10:18:38;;;;;;;16.75;10.82;;;18.50;75.80;;;;;;4959945;28;20355;-83
2022/05/05 10:21:08;;;;;;;15.05;10.82;;;18.60;76.20;;;;;;4976892;28;20027;-83
2022/05/05 10:24:07;;;;;;;17.48;11.45;;;18.70;76.50;;;;;;4975374;28;20026;-84
2022/05/05 10:26:33;;;;;;;21.40;11.68;;;18.70;75.80;;;;;;4976534;28;20016;-83
2022/05/05 10:28:59;;;;;;;15.50;11.00;;;18.70;74.60;;;;;;4957962;28;20037;-84
2022/05/05 10:31:31;;;;;;;19.25;11.70;;;18.80;74.30;;;;;;4959452;28;20479;-83
2022/05/05 10:34:01;;;;;;;14.63;10.82;;;18.80;74.40;;;;;;4976316;28;20074;-84
2022/05/05 10:36:28;;;;;;;18.10;11.05;;;18.80;75.00;;;;;;4976337;28;20038;-83
2022/05/05 10:38:54;;;;;;;16.35;11.18;;;18.90;75.20;;;;;;4974565;28;20045;-84
2022/05/05 10:41:39;;;;;;;18.70;11.70;;;18.90;75.40;;;;;;4976287;28;20037;-83
2022/05/05 10:44:13;;;;;;;14.90;10.77;;;19.10;75.60;;;;;;4974597;28;20043;-84
2022/05/05 10:46:58;;;;;;;22.85;12.18;;;19.10;75.50;;;;;;4975026;28;20023;-83
2022/05/05 10:49:41;;;;;;;18.70;12.27;;;19.20;75.60;;;;;;4974972;28;20039;-83
2022/05/05 10:52:10;;;;;;;17.80;11.70;;;19.30;74.60;;;;;;4974645;28;20458;-83
2022/05/05 10:54:44;;;;;;;15.85;11.32;;;19.30;74.30;;;;;;4974789;28;20027;-83
2022/05/05 10:57:25;;;;;;;18.00;11.98;;;19.40;74.30;;;;;;4974542;28;20480;-84
2022/05/05 11:00:07;;;;;;;21.27;11.18;;;19.40;72.70;;;;;;4974809;28;20471;-83
2022/05/05 11:02:34;;;;;;;16.15;10.50;;;19.40;71.40;;;;;;4975761;28;20031;-83
2022/05/05 11:05:31;;;;;;;20.83;10.35;;;19.50;72.00;;;;;;4958251;28;20125;-84
2022/05/05 11:08:07;;;;;;;18.23;11.60;;;19.50;72.20;;;;;;4975749;28;20091;-84
2022/05/05 11:11:39;;;;;;;15.18;10.65;;;19.50;71.40;;;;;;4974712;28;20053;-83
2022/05/05 11:13:38;;;;;;;15.00;10.73;;;19.50;70.50;;;;;;4975397;28;20066;-84
2022/05/05 11:22:08;;;;;;;16.75;11.02;;;19.70;72.00;;;;;;4975515;28;20137;-84
2022/05/05 11:24:35;;;;;;;16.27;10.57;;;19.70;71.60;;;;;;4975725;28;20027;-83
2022/05/05 11:27:01;;;;;;;15.23;10.60;;;19.80;71.70;;;;;;4975343;28;20031;-84
2022/05/05 11:29:31;;;;;;;14.70;10.75;;;19.80;71.70;;;;;;4975074;28;20182;-83
2022/05/05 11:31:58;;;;;;;15.75;9.38;;;19.90;72.10;;;;;;4974517;28;20085;-84
2022/05/05 11:34:36;;;;;;;16.48;10.07;;;20.00;72.10;;;;;;4973922;28;20034;-83
2022/05/05 11:37:03;;;;;;;14.73;10.23;;;20.00;72.10;;;;;;4974560;28;20422;-83
2022/05/05 11:39:32;;;;;;;18.38;10.88;;;20.10;72.20;;;;;;4976569;28;20027;-83
2022/05/05 11:42:07;;;;;;;14.82;11.18;;;20.20;72.40;;;;;;4974843;28;20383;-85
2022/05/05 11:44:44;;;;;;;15.63;10.77;;;20.30;72.50;;;;;;4984886;28;20125;-83
2022/05/05 11:47:14;;;;;;;16.52;10.55;;;20.40;72.70;;;;;;4960969;28;20033;-83
2022/05/05 11:49:46;;;;;;;15.63;10.55;;;20.50;72.50;;;;;;4994495;28;20101;-83
2022/05/05 11:52:16;;;;;;;15.48;9.93;;;20.60;72.20;;;;;;4978035;28;20048;-84
2022/05/05 11:54:49;;;;;;;13.03;10.10;;;20.70;71.50;;;;;;4994538;28;20026;-83
2022/05/05 11:57:34;;;;;;;15.00;10.15;;;20.80;71.30;;;;;;4994454;28;20026;-83
2022/05/05 12:02:45;;;;;;;16.38;10.98;;;20.90;69.20;;;;;;4994316;28;20109;-83
2022/05/05 12:05:12;;;;;;;15.02;9.95;;;21.00;69.00;;;;;;4960858;28;20018;-83
2022/05/05 12:07:39;;;;;;;14.48;9.35;;;21.00;68.80;;;;;;4994315;28;20493;-83
2022/05/05 12:10:07;;;;;;;12.60;9.43;;;21.10;69.00;;;;;;4977019;28;20072;-84
2022/05/05 12:12:36;;;;;;;16.30;10.82;;;21.10;68.40;;;;;;4976961;28;20072;-83
2022/05/05 12:15:06;;;;;;;14.35;10.13;;;21.10;67.60;;;;;;4976723;28;20031;-84
2022/05/05 12:17:42;;;;;;;16.90;10.23;;;21.10;67.50;;;;;;4976781;28;20026;-84
2022/05/05 12:20:11;;;;;;;14.90;11.75;;;21.20;67.90;;;;;;4994054;28;20037;-83
2022/05/05 12:22:38;;;;;;;14.45;11.10;;;21.20;67.40;;;;;;4960896;28;20026;-83
2022/05/05 12:25:14;;;;;;;18.38;12.77;;;21.30;67.20;;;;;;4994340;28;20474;-84
2022/05/05 12:27:41;;;;;;;14.93;10.68;;;21.30;66.40;;;;;;4977774;28;20034;-83
2022/05/05 12:30:07;;;;;;;17.75;12.93;;;21.30;66.20;;;;;;4976489;28;20031;-84
2022/05/05 12:32:33;;;;;;;19.45;11.02;;;21.30;63.90;;;;;;4977406;28;20034;-83
2022/05/05 12:35:03;;;;;;;12.75;9.85;;;21.30;64.80;;;;;;4994591;28;20419;-83
2022/05/05 12:37:29;;;;;;;13.43;9.45;;;21.30;66.00;;;;;;4976602;28;20485;-83
2022/05/05 12:40:02;;;;;;;15.48;9.98;;;21.40;66.60;;;;;;4945264;28;20034;-83
2022/05/05 12:42:39;;;;;;;13.70;9.68;;;21.40;66.00;;;;;;4976743;28;20081;-83
2022/05/05 12:45:06;;;;;;;12.85;9.15;;;21.50;63.60;;;;;;4978360;28;20089;-84
2022/05/05 12:47:32;;;;;;;16.27;11.35;;;21.50;63.80;;;;;;4960851;28;20423;-84
2022/05/05 12:49:58;;;;;;;16.00;10.68;;;21.50;63.30;;;;;;4995160;28;20058;-83
2022/05/05 13:00:49;;;;;;;18.20;11.63;;;21.50;63.40;;;;;;4983132;28;20406;-83
2022/05/05 13:03:15;;;;;;;19.77;13.23;;;21.60;65.40;;;;;;4980037;28;20375;-84
2022/05/05 13:05:42;;;;;;;16.42;12.43;;;21.70;64.80;;;;;;4964214;28;20161;-84
2022/05/05 13:08:07;;;;;;;17.88;12.00;;;21.70;64.30;;;;;;4997276;28;20092;-84
2022/05/05 13:10:33;;;;;;;15.93;10.00;;;21.80;63.30;;;;;;4979928;28;20108;-84
2022/05/05 13:12:58;;;;;;;20.33;12.88;;;21.80;63.60;;;;;;4980100;28;20025;-83
2022/05/05 13:15:24;;;;;;;17.85;12.00;;;21.80;63.20;;;;;;4963755;28;20030;-83
2022/05/05 13:17:49;;;;;;;15.98;12.68;;;21.90;64.00;;;;;;4979916;28;20430;-83
2022/05/05 13:20:15;;;;;;;14.90;11.07;;;21.90;64.60;;;;;;4963574;28;20093;-84
2022/05/05 13:22:41;;;;;;;12.68;9.10;;;21.90;62.90;;;;;;4963600;28;20133;-83
2022/05/05 13:25:07;;;;;;;14.70;11.55;;;22.00;63.20;;;;;;4963611;28;20031;-86
2022/05/05 13:27:33;;;;;;;14.93;10.68;;;22.10;63.50;;;;;;4997514;28;20034;-84